createdAt,value
2018-05-15T00:01:43.630Z,16.50
2018-05-15T00:04:10.114Z,16.40
2018-05-15T00:06:37.093Z,16.10
2018-05-15T00:09:03.406Z,16.10
2018-05-15T00:11:29.634Z,16.00
2018-05-15T00:13:55.885Z,16.10
2018-05-15T00:16:22.410Z,16.00
2018-05-15T00:18:48.709Z,15.80
2018-05-15T00:21:15.720Z,15.80
2018-05-15T00:23:42.001Z,15.80
2018-05-15T00:26:08.479Z,15.70
2018-05-15T00:28:34.751Z,15.70
2018-05-15T00:31:01.342Z,15.50
2018-05-15T00:33:27.626Z,15.30
2018-05-15T00:35:54.586Z,15.00
2018-05-15T00:38:21.571Z,14.80
2018-05-15T00:40:47.818Z,14.80
2018-05-15T00:43:14.050Z,14.70
2018-05-15T00:45:40.303Z,14.60
2018-05-15T00:48:06.558Z,14.60
2018-05-15T00:50:32.937Z,14.60
2018-05-15T00:52:59.185Z,14.50
2018-05-15T00:55:37.495Z,14.50
2018-05-15T00:58:03.978Z,14.50
2018-05-15T01:00:30.949Z,14.40
2018-05-15T01:02:57.215Z,14.40
2018-05-15T01:05:24.218Z,14.20
2018-05-15T01:07:50.481Z,14.20
2018-05-15T01:10:16.714Z,14.30
2018-05-15T01:12:43.086Z,14.30
2018-05-15T01:15:09.310Z,14.30
2018-05-15T01:17:36.293Z,14.30
2018-05-15T01:20:02.783Z,14.20
2018-05-15T01:22:29.109Z,14.20
2018-05-15T01:24:55.378Z,14.20
2018-05-15T01:27:22.358Z,14.10
2018-05-15T01:29:48.602Z,14.10
2018-05-15T01:32:15.114Z,14.00
2018-05-15T01:34:41.487Z,13.90
2018-05-15T01:37:07.991Z,13.90
2018-05-15T01:39:34.247Z,13.90
2018-05-15T01:42:00.786Z,13.80
2018-05-15T01:44:27.062Z,13.90
2018-05-15T01:46:53.685Z,13.80
2018-05-15T01:49:19.950Z,13.70
2018-05-15T01:51:46.563Z,13.60
2018-05-15T01:54:12.866Z,13.60
2018-05-15T01:56:39.805Z,13.50
2018-05-15T01:59:06.091Z,13.40
2018-05-15T02:01:32.737Z,13.40
2018-05-15T02:03:59.006Z,13.40
2018-05-15T02:06:25.549Z,13.30
2018-05-15T02:08:51.813Z,13.40
2018-05-15T02:11:18.673Z,13.30
2018-05-15T02:13:45.864Z,13.30
2018-05-15T02:16:12.194Z,13.20
2018-05-15T02:18:38.438Z,13.10
2018-05-15T02:21:04.702Z,13.20
2018-05-15T02:23:30.981Z,13.10
2018-05-15T02:25:57.868Z,13.10
2018-05-15T02:28:24.130Z,13.30
2018-05-15T02:30:50.950Z,13.30
2018-05-15T02:33:17.186Z,13.30
2018-05-15T02:35:43.818Z,13.30
2018-05-15T02:38:10.070Z,13.30
2018-05-15T02:40:36.613Z,13.30
2018-05-15T02:43:02.883Z,13.30
2018-05-15T02:45:29.162Z,13.30
2018-05-15T02:47:55.413Z,13.30
2018-05-15T02:50:22.051Z,13.20
2018-05-15T02:52:48.294Z,13.20
2018-05-15T02:55:15.093Z,13.20
2018-05-15T02:57:41.811Z,13.20
2018-05-15T03:00:08.270Z,13.10
2018-05-15T03:02:34.506Z,13.00
2018-05-15T03:05:01.051Z,12.90
2018-05-15T03:07:27.324Z,13.00
2018-05-15T03:09:53.867Z,13.00
2018-05-15T03:12:20.091Z,13.00
2018-05-15T03:14:46.355Z,13.00
2018-05-15T03:17:12.623Z,13.00
2018-05-15T03:19:39.216Z,13.00
2018-05-15T03:22:05.454Z,12.90
2018-05-15T03:24:31.749Z,12.90
2018-05-15T03:26:58.101Z,12.90
2018-05-15T03:29:24.390Z,12.90
2018-05-15T03:31:51.167Z,12.90
2018-05-15T03:34:17.407Z,12.90
2018-05-15T03:36:44.062Z,12.90
2018-05-15T03:39:10.372Z,12.90
2018-05-15T03:41:37.418Z,12.90
2018-05-15T03:44:03.670Z,12.90
2018-05-15T03:46:30.578Z,12.90
2018-05-15T03:48:57.138Z,12.80
2018-05-15T03:51:23.390Z,12.80
2018-05-15T03:53:49.656Z,12.80
2018-05-15T03:56:15.962Z,12.70
2018-05-15T03:58:42.209Z,12.80
2018-05-15T04:01:20.774Z,12.90
2018-05-15T04:04:00.170Z,12.90
2018-05-15T04:06:39.066Z,13.00
2018-05-15T04:09:05.376Z,13.10
2018-05-15T04:11:32.484Z,13.00
2018-05-15T04:13:58.758Z,13.00
2018-05-15T04:16:25.567Z,13.00
2018-05-15T04:18:51.886Z,12.90
2018-05-15T04:21:18.352Z,12.90
2018-05-15T04:23:44.614Z,12.90
2018-05-15T04:26:11.061Z,12.80
2018-05-15T04:28:37.301Z,12.80
2018-05-15T04:31:03.589Z,12.90
2018-05-15T04:33:30.051Z,12.90
2018-05-15T04:35:56.683Z,12.90
2018-05-15T04:38:23.207Z,13.00
2018-05-15T04:40:49.471Z,13.00
2018-05-15T04:43:15.699Z,12.80
2018-05-15T04:45:41.961Z,12.70
2018-05-15T04:48:08.206Z,12.70
2018-05-15T04:50:34.491Z,12.60
2018-05-15T04:53:01.505Z,12.50
2018-05-15T04:55:27.766Z,12.40
2018-05-15T04:57:54.029Z,12.40
2018-05-15T05:00:20.861Z,12.40
2018-05-15T05:02:47.146Z,12.40
2018-05-15T05:05:14.378Z,12.60
2018-05-15T05:07:40.692Z,12.70
2018-05-15T05:10:07.159Z,12.90
2018-05-15T05:12:33.416Z,12.90
2018-05-15T05:14:59.661Z,13.00
2018-05-15T05:17:25.938Z,13.00
2018-05-15T05:19:52.187Z,13.10
2018-05-15T05:22:18.931Z,13.20
2018-05-15T05:24:45.157Z,13.20
2018-05-15T05:27:12.000Z,13.30
2018-05-15T05:29:38.177Z,13.30
2018-05-15T05:32:04.929Z,13.50
2018-05-15T05:34:31.173Z,13.50
2018-05-15T05:36:57.473Z,13.50
2018-05-15T05:39:23.773Z,13.50
2018-05-15T05:41:50.018Z,13.40
2018-05-15T05:44:16.253Z,13.30
2018-05-15T05:46:42.709Z,13.30
2018-05-15T05:49:09.150Z,13.30
2018-05-15T05:51:35.419Z,13.40
2018-05-15T05:54:02.511Z,13.60
2018-05-15T05:56:28.787Z,13.60
2018-05-15T05:58:55.393Z,13.50
2018-05-15T06:01:21.714Z,13.60
2018-05-15T06:03:47.965Z,13.80
2018-05-15T06:06:14.267Z,13.70
2018-05-15T06:08:41.766Z,14.00
2018-05-15T06:11:08.846Z,14.20
2018-05-15T06:13:35.103Z,14.10
2018-05-15T06:16:01.370Z,14.00
2018-05-15T06:18:27.753Z,14.10
2018-05-15T06:20:53.996Z,14.10
2018-05-15T06:23:20.950Z,14.30
2018-05-15T06:25:47.193Z,14.40
2018-05-15T06:28:15.387Z,14.40
2018-05-15T06:30:41.864Z,14.50
2018-05-15T06:33:08.626Z,14.50
2018-05-15T06:35:34.870Z,14.50
2018-05-15T06:38:01.755Z,14.60
2018-05-15T06:40:28.038Z,14.40
2018-05-15T06:42:54.298Z,14.50
2018-05-15T06:45:20.556Z,14.70
2018-05-15T06:47:46.834Z,14.90
2018-05-15T06:50:13.373Z,14.90
2018-05-15T06:52:39.630Z,15.00
2018-05-15T06:55:07.743Z,15.00
2018-05-15T06:57:34.814Z,14.80
2018-05-15T07:00:01.827Z,14.90
2018-05-15T07:02:28.955Z,14.90
2018-05-15T07:04:55.863Z,15.00
2018-05-15T07:07:23.573Z,15.10
2018-05-15T07:09:50.054Z,15.10
2018-05-15T07:12:17.400Z,15.40
2018-05-15T07:14:44.781Z,15.70
2018-05-15T07:17:11.038Z,15.60
2018-05-15T07:19:37.282Z,16.00
2018-05-15T07:22:03.562Z,16.30
2018-05-15T07:24:30.046Z,16.60
2018-05-15T07:26:57.714Z,16.70
2018-05-15T07:29:25.824Z,16.90
2018-05-15T07:31:52.578Z,16.90
2018-05-15T07:34:19.635Z,17.00
2018-05-15T07:36:46.853Z,17.30
2018-05-15T07:39:13.832Z,17.50
2018-05-15T07:41:41.811Z,17.70
2018-05-15T07:44:09.136Z,18.00
2018-05-15T07:46:37.000Z,18.10
2018-05-15T07:49:04.279Z,18.10
2018-05-15T07:51:31.463Z,18.30
2018-05-15T07:54:00.623Z,18.50
2018-05-15T07:56:27.758Z,18.60
2018-05-15T07:58:54.589Z,18.70
2018-05-15T08:01:21.182Z,18.90
2018-05-15T08:03:48.919Z,19.00
2018-05-15T08:06:19.267Z,19.10
2018-05-15T08:08:47.071Z,19.00
2018-05-15T08:11:13.790Z,19.10
2018-05-15T08:13:40.589Z,19.20
2018-05-15T08:16:08.681Z,19.30
2018-05-15T08:18:35.835Z,19.30
2018-05-15T08:21:03.429Z,19.40
2018-05-15T08:23:30.152Z,19.40
2018-05-15T08:25:57.183Z,19.50
2018-05-15T08:28:24.856Z,19.60
2018-05-15T08:30:52.168Z,19.70
2018-05-15T08:33:18.791Z,20.00
2018-05-15T08:35:45.724Z,20.10
2018-05-15T08:38:15.617Z,20.20
2018-05-15T08:40:42.739Z,20.30
2018-05-15T08:43:11.905Z,20.30
2018-05-15T08:45:40.335Z,20.20
2018-05-15T08:48:07.795Z,20.20
2018-05-15T08:50:35.253Z,20.20
2018-05-15T08:53:03.737Z,20.40
2018-05-15T08:55:31.108Z,20.80
2018-05-15T08:57:57.424Z,20.70
2018-05-15T09:00:24.465Z,21.00
2018-05-15T09:02:50.704Z,20.90
2018-05-15T09:05:16.958Z,21.20
2018-05-15T09:07:43.194Z,21.30
2018-05-15T09:10:10.198Z,21.00
2018-05-15T09:12:36.430Z,21.00
2018-05-15T09:15:02.994Z,20.80
2018-05-15T09:17:29.215Z,20.70
2018-05-15T09:19:55.470Z,20.80
2018-05-15T09:22:21.786Z,21.00
2018-05-15T09:24:48.035Z,21.20
2018-05-15T09:27:14.717Z,21.40
2018-05-15T09:29:41.817Z,21.50
2018-05-15T09:32:09.262Z,21.60
2018-05-15T09:34:36.286Z,21.90
2018-05-15T09:37:02.842Z,21.90
2018-05-15T09:39:29.118Z,22.00
2018-05-15T09:44:53.719Z,22.30
2018-05-15T09:47:20.689Z,22.30
2018-05-15T09:49:47.729Z,22.30
2018-05-15T09:52:14.724Z,22.40
2018-05-15T09:54:41.762Z,22.60
2018-05-15T09:57:08.223Z,22.60
2018-05-15T09:59:34.489Z,22.80
2018-05-15T10:02:00.734Z,22.80
2018-05-15T10:04:26.979Z,23.00
2018-05-15T10:06:53.218Z,23.10
2018-05-15T10:09:19.803Z,22.90
2018-05-15T10:11:46.047Z,22.80
2018-05-15T10:14:13.171Z,23.00
2018-05-15T10:16:39.341Z,22.90
2018-05-15T10:19:05.575Z,23.10
2018-05-15T10:21:31.839Z,23.40
2018-05-15T10:23:58.097Z,23.30
2018-05-15T10:26:24.892Z,23.40
2018-05-15T10:28:51.122Z,23.40
2018-05-15T10:31:17.727Z,23.60
2018-05-15T10:33:44.126Z,23.70
2018-05-15T10:36:10.488Z,23.80
2018-05-15T10:38:36.759Z,23.80
2018-05-15T10:41:03.035Z,23.80
2018-05-15T10:43:29.282Z,23.90
2018-05-15T10:45:55.525Z,24.00
2018-05-15T10:48:21.754Z,23.90
2018-05-15T10:50:48.328Z,24.10
2018-05-15T10:53:14.505Z,24.00
2018-05-15T10:55:41.492Z,24.00
2018-05-15T10:58:07.754Z,24.00
2018-05-15T11:00:34.033Z,23.90
2018-05-15T11:03:00.315Z,24.00
2018-05-15T11:05:26.917Z,24.30
2018-05-15T11:07:53.183Z,24.60
2018-05-15T11:10:19.898Z,24.80
2018-05-15T11:12:46.197Z,25.10
2018-05-15T11:15:12.479Z,25.20
2018-05-15T11:17:38.711Z,25.40
2018-05-15T11:33:37.507Z,26.30
2018-05-15T11:36:03.876Z,26.40
2018-05-15T11:38:30.095Z,26.80
2018-05-15T11:40:56.431Z,27.00
2018-05-15T11:43:22.686Z,27.30
2018-05-15T11:45:49.357Z,27.30
2018-05-15T11:48:16.200Z,27.50
2018-05-15T11:50:42.972Z,27.70
2018-05-15T11:53:09.257Z,27.00
2018-05-15T11:55:42.542Z,27.60
2018-05-15T11:58:01.797Z,27.80
2018-05-15T12:00:28.385Z,27.60
2018-05-15T12:02:54.654Z,27.20
2018-05-15T12:05:20.922Z,27.20
2018-05-15T12:07:47.230Z,27.40
2018-05-15T12:10:13.477Z,27.30
2018-05-15T12:12:39.773Z,26.80
2018-05-15T12:15:06.126Z,27.00
2018-05-15T12:17:32.305Z,27.30
2018-05-15T12:19:59.073Z,27.80
2018-05-15T12:22:25.330Z,27.90
2018-05-15T12:24:51.578Z,27.70
2018-05-15T12:27:17.926Z,27.30
2018-05-15T12:29:44.947Z,26.30
2018-05-15T12:32:11.309Z,26.30
2018-05-15T12:34:37.545Z,26.00
2018-05-15T12:37:04.044Z,25.60
2018-05-15T12:39:30.377Z,25.10
2018-05-15T12:41:57.212Z,25.80
2018-05-15T12:44:23.922Z,26.60
2018-05-15T12:46:50.632Z,26.60
2018-05-15T12:49:16.770Z,26.40
2018-05-15T12:51:43.068Z,26.10
2018-05-15T12:54:09.364Z,26.10
2018-05-15T12:56:35.728Z,25.80
2018-05-15T12:59:02.083Z,25.70
2018-05-15T13:01:29.107Z,26.80
2018-05-15T13:03:56.430Z,26.80
2018-05-15T13:06:22.719Z,27.60
2018-05-15T13:08:48.963Z,28.30
2018-05-15T13:11:15.210Z,29.10
2018-05-15T13:13:41.474Z,29.10
2018-05-15T13:16:07.954Z,28.50
2018-05-15T13:18:35.277Z,28.10
2018-05-15T13:21:01.501Z,27.60
2018-05-15T13:23:28.521Z,28.40
2018-05-15T13:25:54.797Z,28.40
2018-05-15T13:28:21.051Z,28.90
2018-05-15T13:30:47.436Z,29.00
2018-05-15T13:33:13.698Z,29.40
2018-05-15T13:35:39.949Z,29.70
2018-05-15T13:38:06.468Z,29.80
2018-05-15T13:40:32.701Z,30.20
2018-05-15T13:42:58.999Z,30.00
2018-05-15T13:45:25.244Z,29.80
2018-05-15T13:47:51.538Z,29.90
2018-05-15T13:50:18.232Z,29.60
2018-05-15T13:52:45.311Z,30.80
2018-05-15T13:55:12.082Z,30.80
2018-05-15T13:57:38.342Z,31.40
2018-05-15T14:00:04.720Z,30.60
2018-05-15T14:02:30.987Z,29.10
2018-05-15T14:04:57.267Z,28.50
2018-05-15T14:07:24.266Z,27.90
2018-05-15T14:09:53.995Z,27.80
2018-05-15T14:12:20.482Z,27.70
2018-05-15T14:14:46.984Z,27.20
2018-05-15T14:17:13.487Z,26.90
2018-05-15T14:19:39.754Z,28.40
2018-05-15T14:22:06.804Z,33.20
2018-05-15T14:24:33.118Z,33.10
2018-05-15T14:26:59.490Z,34.70
2018-05-15T14:29:26.488Z,38.20
2018-05-15T14:31:52.842Z,38.10
2018-05-15T14:34:19.122Z,38.60
2018-05-15T14:36:45.418Z,38.90
2018-05-15T14:39:12.430Z,38.20
2018-05-15T14:41:50.774Z,38.20
2018-05-15T14:44:17.047Z,37.50
2018-05-15T14:46:43.305Z,37.00
2018-05-15T14:49:09.575Z,38.70
2018-05-15T14:51:36.218Z,40.00
2018-05-15T14:54:06.010Z,38.30
2018-05-15T14:56:32.522Z,38.30
2018-05-15T14:58:58.814Z,37.40
2018-05-15T15:01:25.114Z,36.80
2018-05-15T15:03:51.383Z,38.10
2018-05-15T15:06:17.661Z,39.20
2018-05-15T15:08:43.932Z,39.90
2018-05-15T15:11:11.089Z,41.60
2018-05-15T15:13:38.512Z,41.30
2018-05-15T15:16:04.770Z,41.30
2018-05-15T15:18:31.042Z,38.70
2018-05-15T15:20:57.287Z,38.10
2018-05-15T15:23:23.552Z,36.50
2018-05-15T15:25:49.790Z,34.30
2018-05-15T15:28:16.204Z,32.70
2018-05-15T15:30:43.174Z,32.30
2018-05-15T15:33:09.418Z,31.20
2018-05-15T15:35:36.806Z,33.90
2018-05-15T15:38:03.126Z,33.90
2018-05-15T15:40:29.394Z,35.50
2018-05-15T15:42:56.010Z,37.40
2018-05-15T15:45:22.390Z,37.50
2018-05-15T15:47:49.002Z,36.70
2018-05-15T15:50:15.385Z,34.40
2018-05-15T15:52:41.683Z,31.90
2018-05-15T15:55:08.737Z,30.50
2018-05-15T15:57:35.198Z,29.90
2018-05-15T16:00:01.482Z,29.40
2018-05-15T16:02:27.747Z,29.00
2018-05-15T16:04:54.758Z,28.40
2018-05-15T16:07:21.009Z,28.20
2018-05-15T16:09:47.355Z,28.40
2018-05-15T16:12:14.130Z,29.10
2018-05-15T16:14:40.534Z,29.90
2018-05-15T16:17:07.249Z,29.90
2018-05-15T16:19:33.526Z,30.80
2018-05-15T16:21:59.782Z,31.50
2018-05-15T16:24:26.045Z,31.00
2018-05-15T16:26:52.298Z,30.40
2018-05-15T16:29:18.900Z,30.30
2018-05-15T16:31:45.645Z,30.10
2018-05-15T16:34:12.546Z,30.90
2018-05-15T16:36:38.801Z,31.60
2018-05-15T16:39:05.342Z,32.20
2018-05-15T16:41:31.595Z,32.00
2018-05-15T16:43:57.823Z,31.80
2018-05-15T16:46:24.178Z,31.50
2018-05-15T16:48:51.158Z,31.50
2018-05-15T16:51:17.458Z,31.50
2018-05-15T16:53:43.694Z,31.40
2018-05-15T16:56:10.176Z,31.40
2018-05-15T16:58:36.434Z,31.10
2018-05-15T17:01:02.931Z,30.80
2018-05-15T17:03:29.202Z,30.30
2018-05-15T17:05:56.000Z,29.40
2018-05-15T17:08:22.995Z,30.00
2018-05-15T17:10:49.506Z,29.90
2018-05-15T17:13:15.779Z,29.80
2018-05-15T17:15:42.116Z,29.20
2018-05-15T17:18:09.007Z,28.70
2018-05-15T17:20:35.660Z,28.30
2018-05-15T17:23:02.633Z,28.20
2018-05-15T17:25:29.007Z,28.20
2018-05-15T17:27:55.392Z,27.90
2018-05-15T17:30:21.664Z,27.70
2018-05-15T17:32:49.456Z,27.50
2018-05-15T17:35:16.084Z,27.20
2018-05-15T17:37:43.724Z,26.80
2018-05-15T17:40:09.970Z,26.50
2018-05-15T17:42:36.680Z,26.50
2018-05-15T17:45:02.994Z,26.40
2018-05-15T17:47:29.316Z,26.30
2018-05-15T17:49:55.662Z,26.10
2018-05-15T17:52:21.900Z,25.80
2018-05-15T17:54:48.154Z,25.30
2018-05-15T17:57:15.186Z,25.10
2018-05-15T17:59:41.450Z,25.00
2018-05-15T18:02:08.294Z,24.90
2018-05-15T18:04:34.850Z,24.70
2018-05-15T18:07:01.106Z,24.60
2018-05-15T18:09:27.365Z,24.50
2018-05-15T18:11:53.638Z,24.40
2018-05-15T18:14:19.894Z,24.30
2018-05-15T18:16:46.186Z,24.20
2018-05-15T18:19:12.409Z,24.00
2018-05-15T18:21:38.675Z,23.90
2018-05-15T18:24:05.311Z,23.80
2018-05-15T18:26:31.590Z,23.60
2018-05-15T18:28:57.842Z,23.50
2018-05-15T18:31:24.118Z,23.40
2018-05-15T18:33:51.322Z,23.20
2018-05-15T18:36:17.579Z,23.20
2018-05-15T18:38:43.826Z,23.10
2018-05-15T18:41:10.321Z,22.90
2018-05-15T18:43:36.574Z,22.70
2018-05-15T18:46:02.846Z,22.60
2018-05-15T18:48:29.115Z,22.50
2018-05-15T18:50:55.385Z,22.30
2018-05-15T18:53:22.025Z,22.30
2018-05-15T18:55:48.436Z,22.10
2018-05-15T18:58:15.154Z,22.00
2018-05-15T19:00:41.430Z,21.80
2018-05-15T19:03:07.702Z,21.70
2018-05-15T19:05:34.442Z,21.60
2018-05-15T19:08:00.986Z,21.60
2018-05-15T19:10:27.273Z,21.60
2018-05-15T19:12:54.221Z,21.50
2018-05-15T19:15:20.449Z,21.40
2018-05-15T19:17:47.473Z,21.20
2018-05-15T19:20:13.726Z,21.10
2018-05-15T19:22:40.746Z,21.00
2018-05-15T19:25:06.990Z,20.90
2018-05-15T19:27:33.442Z,20.90
2018-05-15T19:29:59.658Z,20.80
2018-05-15T19:32:31.910Z,20.60
2018-05-15T19:34:58.502Z,20.50
2018-05-15T19:37:28.262Z,20.20
2018-05-15T19:39:56.833Z,20.10
2018-05-15T19:42:23.212Z,20.10
2018-05-15T19:44:52.119Z,19.90
2018-05-15T19:47:19.794Z,19.80
2018-05-15T19:49:46.799Z,19.50
2018-05-15T19:52:13.157Z,19.50
2018-05-15T19:54:39.450Z,19.40
2018-05-15T19:57:05.777Z,19.30
2018-05-15T19:59:32.241Z,19.30
2018-05-15T20:01:58.911Z,19.10
2018-05-15T20:04:25.353Z,19.10
2018-05-15T20:06:51.575Z,19.00
2018-05-15T20:09:17.920Z,18.90
2018-05-15T20:11:44.917Z,18.80
2018-05-15T20:14:11.216Z,18.80
2018-05-15T20:16:37.575Z,18.70
2018-05-15T20:19:03.858Z,18.60
2018-05-15T20:21:30.882Z,18.50
2018-05-15T20:23:57.275Z,18.40
2018-05-15T20:26:23.818Z,18.30
2018-05-15T20:28:50.471Z,18.30
2018-05-15T20:31:17.212Z,18.30
2018-05-15T20:33:43.628Z,18.30
2018-05-15T20:36:09.887Z,18.20
2018-05-15T20:38:41.024Z,18.10
2018-05-15T20:41:09.472Z,18.10
2018-05-15T20:43:35.690Z,18.20
2018-05-15T20:46:01.965Z,18.20
2018-05-15T20:50:55.347Z,18.30
2018-05-15T20:53:23.292Z,18.30
2018-05-15T20:55:51.657Z,18.20
2018-05-15T20:58:19.101Z,18.00
2018-05-15T21:00:49.069Z,17.70
2018-05-15T21:03:18.766Z,17.70
2018-05-15T21:05:48.130Z,17.70
2018-05-15T21:08:20.177Z,17.70
2018-05-15T21:10:48.206Z,17.70
2018-05-15T21:13:14.482Z,17.80
2018-05-15T21:15:40.908Z,17.80
2018-05-15T21:18:07.926Z,17.70
2018-05-15T21:20:34.193Z,17.60
2018-05-15T21:23:00.453Z,17.60
2018-05-15T21:25:26.678Z,17.60
2018-05-15T21:27:55.264Z,17.60
2018-05-15T21:30:21.509Z,17.60
2018-05-15T21:32:48.498Z,17.60
2018-05-15T21:35:15.087Z,17.60
2018-05-15T21:37:41.326Z,17.60
2018-05-15T21:40:08.326Z,17.50
2018-05-15T21:42:34.592Z,17.40
2018-05-15T21:45:01.395Z,17.40
2018-05-15T21:47:27.626Z,17.40
2018-05-15T21:49:54.411Z,17.30
2018-05-15T21:52:21.394Z,17.20
2018-05-15T21:54:47.635Z,17.20
2018-05-15T21:57:13.878Z,17.10
2018-05-15T21:59:40.531Z,17.00
2018-05-15T22:02:07.543Z,17.10
2018-05-15T22:04:33.802Z,17.00
2018-05-15T22:07:00.049Z,17.10
2018-05-15T22:09:26.640Z,17.20
2018-05-15T22:12:05.017Z,17.20
2018-05-15T22:14:44.363Z,17.20
2018-05-15T22:17:23.026Z,17.20
2018-05-15T22:20:01.720Z,17.30
2018-05-15T22:22:27.814Z,17.20
2018-05-15T22:24:54.073Z,17.10
2018-05-15T22:27:20.317Z,17.20
2018-05-15T22:29:47.810Z,17.20
2018-05-15T22:32:14.037Z,17.20
2018-05-15T22:34:40.342Z,17.20
2018-05-15T22:37:06.586Z,17.20
2018-05-15T22:39:32.863Z,17.10
2018-05-15T22:41:59.097Z,17.10
2018-05-15T22:44:25.356Z,17.00
2018-05-15T22:46:51.586Z,17.20
2018-05-15T22:49:17.858Z,17.20
2018-05-15T22:51:44.827Z,17.10
2018-05-15T22:54:11.097Z,17.10
2018-05-15T22:56:37.381Z,17.00
2018-05-15T22:59:03.642Z,17.00
2018-05-15T23:01:30.093Z,16.90
2018-05-15T23:03:57.258Z,16.90
2018-05-15T23:06:23.498Z,16.90
2018-05-15T23:08:49.746Z,16.90
2018-05-15T23:11:16.569Z,16.90
2018-05-15T23:13:42.847Z,16.80
2018-05-15T23:16:09.404Z,16.80
2018-05-15T23:18:35.658Z,16.80
2018-05-15T23:21:03.554Z,16.70
2018-05-15T23:23:29.811Z,16.70
2018-05-15T23:25:56.038Z,16.60
2018-05-15T23:28:22.289Z,16.60
2018-05-15T23:30:48.516Z,16.50
2018-05-15T23:33:14.771Z,16.40
2018-05-15T23:35:41.512Z,16.40
2018-05-15T23:38:07.778Z,16.40
2018-05-15T23:40:34.577Z,16.40
2018-05-15T23:43:00.822Z,16.40
2018-05-15T23:45:27.206Z,16.30
2018-05-15T23:47:53.438Z,16.20
2018-05-15T23:50:19.690Z,16.20
2018-05-15T23:52:45.913Z,16.10
2018-05-15T23:55:12.438Z,16.10
2018-05-15T23:57:38.674Z,16.20
